Aérodrome :
LOGIN :

S'inscrire | Disclaimer

   EN    FR    IT 

 










Légende :    VFR   VFR Marginal   IFR   IFR Intensif   IFR Très Intensif
Visi : 
Plafond : 
>= 8 km
>= 3000ft
5 à 8 km
1000 à 3000 ft
1500m à 5 km
500 à 1000 ft
800 à 1500m
200 à 500 ft
< 800m
< 200 ft
Symboles :   Orages  Brouillard  Fortes neiges  Fortes précipitations  Vent > 20 kt
SIGMETs :   Divers  Orages  Givrage  Turbulence  Onde Orograph.  Cendres Volcan.







- Altitude de l'aérodrome : 425 ft
- Code IATA : DTM


EDLW - Dortmund

DERNIER METAR :
  • 191320Z 26011KT 230V290 9999 BKN021 07/02 Q1016

METARs EXPIRÉS :
  • 191250Z 26011KT 9999 -SHRA BKN021 06/02 Q1015
  • 191220Z 26011KT 9999 BKN022 06/02 Q1015
  • 191150Z 26012KT 9999 BKN020 06/02 Q1015
  • 191120Z 27012KT 240V300 9999 BKN019 06/02 Q1015
  • 191050Z 26013KT 9999 BKN018 05/02 Q1015

TAF TAF EDLW
Valide du 19 à 12h jusqu'au 20 à 12h UTC


191100Z 1912/2012 25013KT 9999 SCT025
BECMG 1918/1921 25008KT
BECMG 2011/2012 22013KT RA
Pas de NOTAMs connus pour ce terrain.



MET'MAP, la Météo Aéronautique d'un coup d'oeil ! - Copyright ORBIFLY Décembre 2007 - Disclaimer

ORBIFLY MET'MAP TEAM :

Programmation & Développement : Alexandra Zaïnal
Conception & Développement : Baudouin d'Aumeries
Co-Programmation & Développement : Marc-Olivier Méhu
Soutien technique & logistique : Manuel Goepfert

Contact : metmap@orbifly.com




SOURCES & CREDITS :

   NOAA